PWSweather.com
Personal Weather Stations
Station Observations
KOHAVON11
Long Road Station, Avon, OH 44011

Long Road StationAvon, OH 44011

Lat: 41.437, Lon: -82.0477

Elevation: 686

Station Type: Davis Vantage Pro2

http://www.avon-weather.com

High Low Average
Temperature 36.7°F2.6°C 10.0°F-12.2°C 23.0°F-5.0°C
Dew Point 29.3°F-1.5°C 5.4°F-14.8°C 14.8°F-9.6°C
Winds 10.0 mph 16.1 kmh Calm Calm 1.0 mph ESE1.6 kmh ESE
Wind Gusts 15.0 mph24.1 kmh -- 4.0 mph6.4 kmh
Humidity 83% 35% 72%
Pressure 30.82 in1043.7 mb 30.34 in1027.4 mb -
Precipitation 0.00 in0.0 mm - -
Hour Temp Dew Point Humidity Winds Wind Gusts Pressure Precip Precip Rate Daily Precip Total
12:03 AM 14.8°F-9.6°C 9.5°F-12.5°C 79% 1.0 mph E1.6 kmh E 4.0 mph6.4 kmh 30.81 in1043.3 mb 0.00 in0.0 mm 0.00 in0.0 mm 0.00 in0.0 mm
12:08 AM 14.8°F-9.6°C 9.8°F-12.3°C 80% 1.0 mph E1.6 kmh E 4.0 mph6.4 kmh 30.82 in1043.7 mb 0.00 in0.0 mm 0.00 in0.0 mm 0.00 in0.0 mm
12:13 AM 14.8°F-9.6°C 9.8°F-12.3°C 80% 1.0 mph E1.6 kmh E 4.0 mph6.4 kmh 30.82 in1043.7 mb 0.00 in0.0 mm 0.00 in0.0 mm 0.00 in0.0 mm
12:18 AM 14.7°F-9.6°C 9.7°F-12.4°C 80% 2.0 mph E3.2 kmh E 4.0 mph6.4 kmh 30.82 in1043.7 mb 0.00 in0.0 mm 0.00 in0.0 mm 0.00 in0.0 mm
12:23 AM 14.7°F-9.6°C 9.7°F-12.4°C 80% 2.0 mph E3.2 kmh E 3.0 mph4.8 kmh 30.82 in1043.7 mb 0.00 in0.0 mm 0.00 in0.0 mm 0.00 in0.0 mm
12:28 AM 14.6°F-9.7°C 9.6°F-12.4°C 80% Calm Calm 3.0 mph4.8 kmh 30.83 in1044.0 mb 0.00 in0.0 mm 0.00 in0.0 mm 0.00 in0.0 mm
12:33 AM 14.6°F-9.7°C 9.6°F-12.4°C 80% 1.0 mph E1.6 kmh E 3.0 mph4.8 kmh 30.82 in1043.7 mb 0.00 in0.0 mm 0.00 in0.0 mm 0.00 in0.0 mm
12:38 AM 14.5°F-9.7°C 9.5°F-12.5°C 80% 2.0 mph E3.2 kmh E 3.0 mph4.8 kmh 30.83 in1044.0 mb 0.00 in0.0 mm 0.00 in0.0 mm 0.00 in0.0 mm
12:43 AM 14.3°F-9.8°C 9.3°F-12.6°C 80% 2.0 mph E3.2 kmh E 3.0 mph4.8 kmh 30.82 in1043.7 mb 0.00 in0.0 mm 0.00 in0.0 mm 0.00 in0.0 mm
12:48 AM 14.2°F-9.9°C 9.2°F-12.7°C 80% 3.0 mph E4.8 kmh E 3.0 mph4.8 kmh 30.82 in1043.7 mb 0.00 in0.0 mm 0.00 in0.0 mm 0.00 in0.0 mm
12:53 AM 14.1°F-9.9°C 9.4°F-12.6°C 81% 2.0 mph E3.2 kmh E 5.0 mph8.0 kmh 30.82 in1043.7 mb 0.00 in0.0 mm 0.00 in0.0 mm 0.00 in0.0 mm
12:58 AM 14.1°F-9.9°C 9.4°F-12.6°C 81% 3.0 mph E4.8 kmh E 5.0 mph8.0 kmh 30.82 in1043.7 mb 0.00 in0.0 mm 0.00 in0.0 mm 0.00 in0.0 mm
01:03 AM 14.2°F-9.9°C 9.5°F-12.5°C 81% 3.0 mph E4.8 kmh E 5.0 mph8.0 kmh 30.82 in1043.7 mb 0.00 in0.0 mm 0.00 in0.0 mm 0.00 in0.0 mm
01:08 AM 14.2°F-9.9°C 9.5°F-12.5°C 81% 1.0 mph E1.6 kmh E 5.0 mph8.0 kmh 30.82 in1043.7 mb 0.00 in0.0 mm 0.00 in0.0 mm 0.00 in0.0 mm
01:13 AM 14.1°F-9.9°C 9.4°F-12.6°C 81% 1.0 mph E1.6 kmh E 3.0 mph4.8 kmh 30.82 in1043.7 mb 0.00 in0.0 mm 0.00 in0.0 mm 0.00 in0.0 mm
01:18 AM 14.0°F-10.0°C 9.3°F-12.6°C 81% 2.0 mph E3.2 kmh E 3.0 mph4.8 kmh 30.82 in1043.7 mb 0.00 in0.0 mm 0.00 in0.0 mm 0.00 in0.0 mm
01:23 AM 13.9°F-10.1°C 9.2°F-12.7°C 81% 2.0 mph E3.2 kmh E 3.0 mph4.8 kmh 30.82 in1043.7 mb 0.00 in0.0 mm 0.00 in0.0 mm 0.00 in0.0 mm
01:28 AM 14.0°F-10.0°C 9.3°F-12.6°C 81% 2.0 mph E3.2 kmh E 2.0 mph3.2 kmh 30.82 in1043.7 mb 0.00 in0.0 mm 0.00 in0.0 mm 0.00 in0.0 mm
01:33 AM 14.0°F-10.0°C 9.3°F-12.6°C 81% 1.0 mph E1.6 kmh E 3.0 mph4.8 kmh 30.82 in1043.7 mb 0.00 in0.0 mm 0.00 in0.0 mm 0.00 in0.0 mm
01:38 AM 13.9°F-10.1°C 9.2°F-12.7°C 81% 1.0 mph E1.6 kmh E 3.0 mph4.8 kmh 30.82 in1043.7 mb 0.00 in0.0 mm 0.00 in0.0 mm 0.00 in0.0 mm
01:43 AM 13.7°F-10.2°C 9.0°F-12.8°C 81% 2.0 mph E3.2 kmh E 3.0 mph4.8 kmh 30.82 in1043.7 mb 0.00 in0.0 mm 0.00 in0.0 mm 0.00 in0.0 mm
01:48 AM 13.6°F-10.2°C 8.9°F-12.8°C 81% 3.0 mph E4.8 kmh E 3.0 mph4.8 kmh 30.82 in1043.7 mb 0.00 in0.0 mm 0.00 in0.0 mm 0.00 in0.0 mm
01:53 AM 13.5°F-10.3°C 8.8°F-12.9°C 81% 1.0 mph E1.6 kmh E 5.0 mph8.0 kmh 30.82 in1043.7 mb 0.00 in0.0 mm 0.00 in0.0 mm 0.00 in0.0 mm
01:58 AM 13.5°F-10.3°C 8.8°F-12.9°C 81% 2.0 mph ESE3.2 kmh ESE 5.0 mph8.0 kmh 30.82 in1043.7 mb 0.00 in0.0 mm 0.00 in0.0 mm 0.00 in0.0 mm
02:03 AM 13.3°F-10.4°C 8.6°F-13.0°C 81% Calm Calm 5.0 mph8.0 kmh 30.82 in1043.7 mb 0.00 in0.0 mm 0.00 in0.0 mm 0.00 in0.0 mm
02:08 AM 13.3°F-10.4°C 8.9°F-12.8°C 82% 2.0 mph E3.2 kmh E 5.0 mph8.0 kmh 30.82 in1043.7 mb 0.00 in0.0 mm 0.00 in0.0 mm 0.00 in0.0 mm
02:13 AM 13.2°F-10.4°C 8.8°F-12.9°C 82% 1.0 mph E1.6 kmh E 2.0 mph3.2 kmh 30.82 in1043.7 mb 0.00 in0.0 mm 0.00 in0.0 mm 0.00 in0.0 mm
02:18 AM 13.1°F-10.5°C 8.7°F-12.9°C 82% 1.0 mph E1.6 kmh E 2.0 mph3.2 kmh 30.82 in1043.7 mb 0.00 in0.0 mm 0.00 in0.0 mm 0.00 in0.0 mm
02:23 AM 13.0°F-10.6°C 8.6°F-13.0°C 82% Calm Calm -- 30.82 in1043.7 mb 0.00 in0.0 mm 0.00 in0.0 mm 0.00 in0.0 mm
02:28 AM 12.9°F-10.6°C 8.5°F-13.1°C 82% Calm Calm -- 30.82 in1043.7 mb 0.00 in0.0 mm 0.00 in0.0 mm 0.00 in0.0 mm
02:33 AM 12.7°F-10.7°C 8.3°F-13.2°C 82% Calm Calm 1.0 mph1.6 kmh 30.82 in1043.7 mb 0.00 in0.0 mm 0.00 in0.0 mm 0.00 in0.0 mm
02:38 AM 12.5°F-10.8°C 7.8°F-13.4°C 81% Calm Calm -- 30.81 in1043.3 mb 0.00 in0.0 mm 0.00 in0.0 mm 0.00 in0.0 mm
02:43 AM 12.4°F-10.9°C 8.0°F-13.3°C 82% Calm Calm -- 30.81 in1043.3 mb 0.00 in0.0 mm 0.00 in0.0 mm 0.00 in0.0 mm
02:48 AM 12.3°F-10.9°C 7.6°F-13.6°C 81% Calm Calm -- 30.81 in1043.3 mb 0.00 in0.0 mm 0.00 in0.0 mm 0.00 in0.0 mm
02:53 AM 12.2°F-11.0°C 7.8°F-13.4°C 82% Calm Calm 1.0 mph1.6 kmh 30.81 in1043.3 mb 0.00 in0.0 mm 0.00 in0.0 mm 0.00 in0.0 mm
02:58 AM 12.1°F-11.1°C 7.7°F-13.5°C 82% Calm Calm 1.0 mph1.6 kmh 30.81 in1043.3 mb 0.00 in0.0 mm 0.00 in0.0 mm 0.00 in0.0 mm
03:03 AM 12.0°F-11.1°C 7.6°F-13.6°C 82% Calm Calm 1.0 mph1.6 kmh 30.81 in1043.3 mb 0.00 in0.0 mm 0.00 in0.0 mm 0.00 in0.0 mm
03:08 AM 12.0°F-11.1°C 7.6°F-13.6°C 82% Calm Calm 1.0 mph1.6 kmh 30.80 in1043.0 mb 0.00 in0.0 mm 0.00 in0.0 mm 0.00 in0.0 mm
03:13 AM 12.0°F-11.1°C 7.6°F-13.6°C 82% Calm Calm -- 30.80 in1043.0 mb 0.00 in0.0 mm 0.00 in0.0 mm 0.00 in0.0 mm
03:18 AM 12.0°F-11.1°C 7.6°F-13.6°C 82% Calm Calm -- 30.80 in1043.0 mb 0.00 in0.0 mm 0.00 in0.0 mm 0.00 in0.0 mm
03:23 AM 12.0°F-11.1°C 7.6°F-13.6°C 82% Calm Calm -- 30.80 in1043.0 mb 0.00 in0.0 mm 0.00 in0.0 mm 0.00 in0.0 mm
03:28 AM 12.0°F-11.1°C 7.6°F-13.6°C 82% Calm Calm 1.0 mph1.6 kmh 30.80 in1043.0 mb 0.00 in0.0 mm 0.00 in0.0 mm 0.00 in0.0 mm
03:33 AM 12.0°F-11.1°C 7.6°F-13.6°C 82% Calm Calm 1.0 mph1.6 kmh 30.80 in1043.0 mb 0.00 in0.0 mm 0.00 in0.0 mm 0.00 in0.0 mm
03:38 AM 11.9°F-11.2°C 7.5°F-13.6°C 82% 3.0 mph NE4.8 kmh NE 5.0 mph8.0 kmh 30.80 in1043.0 mb 0.00 in0.0 mm 0.00 in0.0 mm 0.00 in0.0 mm
03:43 AM 12.0°F-11.1°C 7.6°F-13.6°C 82% 2.0 mph ENE3.2 kmh ENE 5.0 mph8.0 kmh 30.80 in1043.0 mb 0.00 in0.0 mm 0.00 in0.0 mm 0.00 in0.0 mm
03:48 AM 12.5°F-10.8°C 8.4°F-13.1°C 83% 5.0 mph NE8.0 kmh NE 7.0 mph11.3 kmh 30.80 in1043.0 mb 0.00 in0.0 mm 0.00 in0.0 mm 0.00 in0.0 mm
03:53 AM 12.9°F-10.6°C 8.8°F-12.9°C 83% 3.0 mph NE4.8 kmh NE 7.0 mph11.3 kmh 30.80 in1043.0 mb 0.00 in0.0 mm 0.00 in0.0 mm 0.00 in0.0 mm
03:58 AM 13.2°F-10.4°C 9.1°F-12.7°C 83% 3.0 mph NE4.8 kmh NE 7.0 mph11.3 kmh 30.80 in1043.0 mb 0.00 in0.0 mm 0.00 in0.0 mm 0.00 in0.0 mm
04:03 AM 13.3°F-10.4°C 9.2°F-12.7°C 83% 2.0 mph NE3.2 kmh NE 7.0 mph11.3 kmh 30.80 in1043.0 mb 0.00 in0.0 mm 0.00 in0.0 mm 0.00 in0.0 mm
04:08 AM 13.5°F-10.3°C 9.4°F-12.6°C 83% Calm Calm -- 30.81 in1043.3 mb 0.00 in0.0 mm 0.00 in0.0 mm 0.00 in0.0 mm
04:13 AM 13.7°F-10.2°C 9.6°F-12.4°C 83% Calm Calm -- 30.81 in1043.3 mb 0.00 in0.0 mm 0.00 in0.0 mm 0.00 in0.0 mm
04:18 AM 13.7°F-10.2°C 9.6°F-12.4°C 83% Calm Calm 1.0 mph1.6 kmh 30.80 in1043.0 mb 0.00 in0.0 mm 0.00 in0.0 mm 0.00 in0.0 mm
04:23 AM 13.6°F-10.2°C 9.2°F-12.7°C 82% Calm Calm -- 30.80 in1043.0 mb 0.00 in0.0 mm 0.00 in0.0 mm 0.00 in0.0 mm
04:28 AM 13.4°F-10.3°C 9.0°F-12.8°C 82% Calm Calm -- 30.80 in1043.0 mb 0.00 in0.0 mm 0.00 in0.0 mm 0.00 in0.0 mm
04:33 AM 13.3°F-10.4°C 8.9°F-12.8°C 82% Calm Calm -- 30.80 in1043.0 mb 0.00 in0.0 mm 0.00 in0.0 mm 0.00 in0.0 mm
04:38 AM 13.2°F-10.4°C 8.8°F-12.9°C 82% Calm Calm -- 30.80 in1043.0 mb 0.00 in0.0 mm 0.00 in0.0 mm 0.00 in0.0 mm
04:43 AM 13.1°F-10.5°C 8.7°F-12.9°C 82% Calm Calm 1.0 mph1.6 kmh 30.80 in1043.0 mb 0.00 in0.0 mm 0.00 in0.0 mm 0.00 in0.0 mm
04:48 AM 13.0°F-10.6°C 8.6°F-13.0°C 82% Calm Calm -- 30.79 in1042.7 mb 0.00 in0.0 mm 0.00 in0.0 mm 0.00 in0.0 mm
04:53 AM 12.9°F-10.6°C 8.2°F-13.2°C 81% Calm Calm -- 30.80 in1043.0 mb 0.00 in0.0 mm 0.00 in0.0 mm 0.00 in0.0 mm
04:58 AM 12.8°F-10.7°C 8.1°F-13.3°C 81% Calm Calm -- 30.80 in1043.0 mb 0.00 in0.0 mm 0.00 in0.0 mm 0.00 in0.0 mm
05:03 AM 12.7°F-10.7°C 8.0°F-13.3°C 81% Calm Calm -- 30.80 in1043.0 mb 0.00 in0.0 mm 0.00 in0.0 mm 0.00 in0.0 mm
05:08 AM 12.7°F-10.7°C 8.0°F-13.3°C 81% Calm Calm 1.0 mph1.6 kmh 30.80 in1043.0 mb 0.00 in0.0 mm 0.00 in0.0 mm 0.00 in0.0 mm
05:13 AM 12.6°F-10.8°C 7.9°F-13.4°C 81% Calm Calm -- 30.80 in1043.0 mb 0.00 in0.0 mm 0.00 in0.0 mm 0.00 in0.0 mm
05:18 AM 12.6°F-10.8°C 7.9°F-13.4°C 81% Calm Calm -- 30.79 in1042.7 mb 0.00 in0.0 mm 0.00 in0.0 mm 0.00 in0.0 mm
05:23 AM 12.7°F-10.7°C 8.0°F-13.3°C 81% Calm Calm 1.0 mph1.6 kmh 30.80 in1043.0 mb 0.00 in0.0 mm 0.00 in0.0 mm 0.00 in0.0 mm
05:28 AM 12.7°F-10.7°C 8.0°F-13.3°C 81% 1.0 mph ESE1.6 kmh ESE 3.0 mph4.8 kmh 30.79 in1042.7 mb 0.00 in0.0 mm 0.00 in0.0 mm 0.00 in0.0 mm
05:33 AM 12.7°F-10.7°C 8.0°F-13.3°C 81% Calm Calm 1.0 mph1.6 kmh 30.79 in1042.7 mb 0.00 in0.0 mm 0.00 in0.0 mm 0.00 in0.0 mm
05:38 AM 12.7°F-10.7°C 8.0°F-13.3°C 81% 1.0 mph SE1.6 kmh SE 1.0 mph1.6 kmh 30.79 in1042.7 mb 0.00 in0.0 mm 0.00 in0.0 mm 0.00 in0.0 mm
05:43 AM 12.6°F-10.8°C 7.9°F-13.4°C 81% Calm Calm -- 30.79 in1042.7 mb 0.00 in0.0 mm 0.00 in0.0 mm 0.00 in0.0 mm
05:48 AM 12.6°F-10.8°C 7.9°F-13.4°C 81% Calm Calm -- 30.79 in1042.7 mb 0.00 in0.0 mm 0.00 in0.0 mm 0.00 in0.0 mm
05:53 AM 12.6°F-10.8°C 7.9°F-13.4°C 81% 2.0 mph SE3.2 kmh SE 2.0 mph3.2 kmh 30.79 in1042.7 mb 0.00 in0.0 mm 0.00 in0.0 mm 0.00 in0.0 mm
05:58 AM 12.8°F-10.7°C 8.4°F-13.1°C 82% 2.0 mph ESE3.2 kmh ESE 3.0 mph4.8 kmh 30.79 in1042.7 mb 0.00 in0.0 mm 0.00 in0.0 mm 0.00 in0.0 mm
06:03 AM 12.8°F-10.7°C 8.4°F-13.1°C 82% 2.0 mph ESE3.2 kmh ESE 3.0 mph4.8 kmh 30.79 in1042.7 mb 0.00 in0.0 mm 0.00 in0.0 mm 0.00 in0.0 mm
06:08 AM 12.8°F-10.7°C 8.4°F-13.1°C 82% 1.0 mph SE1.6 kmh SE 3.0 mph4.8 kmh 30.79 in1042.7 mb 0.00 in0.0 mm 0.00 in0.0 mm 0.00 in0.0 mm
06:13 AM 12.8°F-10.7°C 8.4°F-13.1°C 82% Calm Calm 3.0 mph4.8 kmh 30.79 in1042.7 mb 0.00 in0.0 mm 0.00 in0.0 mm 0.00 in0.0 mm
06:18 AM 12.7°F-10.7°C 8.3°F-13.2°C 82% Calm Calm 2.0 mph3.2 kmh 30.80 in1043.0 mb 0.00 in0.0 mm 0.00 in0.0 mm 0.00 in0.0 mm
06:23 AM 12.7°F-10.7°C 8.3°F-13.2°C 82% 1.0 mph SE1.6 kmh SE 1.0 mph1.6 kmh 30.80 in1043.0 mb 0.00 in0.0 mm 0.00 in0.0 mm 0.00 in0.0 mm
06:28 AM 12.6°F-10.8°C 8.2°F-13.2°C 82% Calm Calm 1.0 mph1.6 kmh 30.80 in1043.0 mb 0.00 in0.0 mm 0.00 in0.0 mm 0.00 in0.0 mm
06:33 AM 12.5°F-10.8°C 8.1°F-13.3°C 82% Calm Calm -- 30.80 in1043.0 mb 0.00 in0.0 mm 0.00 in0.0 mm 0.00 in0.0 mm
06:38 AM 12.5°F-10.8°C 8.1°F-13.3°C 82% Calm Calm -- 30.80 in1043.0 mb 0.00 in0.0 mm 0.00 in0.0 mm 0.00 in0.0 mm
06:43 AM 12.3°F-10.9°C 7.9°F-13.4°C 82% Calm Calm -- 30.79 in1042.7 mb 0.00 in0.0 mm 0.00 in0.0 mm 0.00 in0.0 mm
06:48 AM 12.2°F-11.0°C 7.5°F-13.6°C 81% 1.0 mph SE1.6 kmh SE 2.0 mph3.2 kmh 30.79 in1042.7 mb 0.00 in0.0 mm 0.00 in0.0 mm 0.00 in0.0 mm
06:53 AM 12.0°F-11.1°C 7.3°F-13.7°C 81% Calm Calm 2.0 mph3.2 kmh 30.80 in1043.0 mb 0.00 in0.0 mm 0.00 in0.0 mm 0.00 in0.0 mm
06:58 AM 11.9°F-11.2°C 7.2°F-13.8°C 81% 1.0 mph SE1.6 kmh SE 2.0 mph3.2 kmh 30.80 in1043.0 mb 0.00 in0.0 mm 0.00 in0.0 mm 0.00 in0.0 mm
07:03 AM 11.7°F-11.3°C 7.1°F-13.8°C 81% Calm Calm -- 30.80 in1043.0 mb 0.00 in0.0 mm 0.00 in0.0 mm 0.00 in0.0 mm
07:08 AM 11.6°F-11.3°C 7.0°F-13.9°C 81% Calm Calm 2.0 mph3.2 kmh 30.80 in1043.0 mb 0.00 in0.0 mm 0.00 in0.0 mm 0.00 in0.0 mm
07:13 AM 11.4°F-11.4°C 6.8°F-14.0°C 81% Calm Calm -- 30.80 in1043.0 mb 0.00 in0.0 mm 0.00 in0.0 mm 0.00 in0.0 mm
07:18 AM 11.2°F-11.6°C 6.6°F-14.1°C 81% Calm Calm 1.0 mph1.6 kmh 30.80 in1043.0 mb 0.00 in0.0 mm 0.00 in0.0 mm 0.00 in0.0 mm
07:23 AM 11.1°F-11.6°C 6.5°F-14.2°C 81% Calm Calm -- 30.79 in1042.7 mb 0.00 in0.0 mm 0.00 in0.0 mm 0.00 in0.0 mm
07:28 AM 11.1°F-11.6°C 6.5°F-14.2°C 81% Calm Calm -- 30.80 in1043.0 mb 0.00 in0.0 mm 0.00 in0.0 mm 0.00 in0.0 mm
07:33 AM 11.1°F-11.6°C 6.5°F-14.2°C 81% Calm Calm -- 30.79 in1042.7 mb 0.00 in0.0 mm 0.00 in0.0 mm 0.00 in0.0 mm
07:38 AM 11.0°F-11.7°C 6.4°F-14.2°C 81% Calm Calm -- 30.79 in1042.7 mb 0.00 in0.0 mm 0.00 in0.0 mm 0.00 in0.0 mm
07:43 AM 11.0°F-11.7°C 6.4°F-14.2°C 81% Calm Calm -- 30.79 in1042.7 mb 0.00 in0.0 mm 0.00 in0.0 mm 0.00 in0.0 mm
07:48 AM 11.1°F-11.6°C 6.5°F-14.2°C 81% 1.0 mph SE1.6 kmh SE 1.0 mph1.6 kmh 30.79 in1042.7 mb 0.00 in0.0 mm 0.00 in0.0 mm 0.00 in0.0 mm
07:53 AM 11.1°F-11.6°C 6.5°F-14.2°C 81% Calm Calm 2.0 mph3.2 kmh 30.79 in1042.7 mb 0.00 in0.0 mm 0.00 in0.0 mm 0.00 in0.0 mm
07:58 AM 11.1°F-11.6°C 6.5°F-14.2°C 81% Calm Calm -- 30.79 in1042.7 mb 0.00 in0.0 mm 0.00 in0.0 mm 0.00 in0.0 mm
08:03 AM 11.0°F-11.7°C 6.4°F-14.2°C 81% Calm Calm -- 30.80 in1043.0 mb 0.00 in0.0 mm 0.00 in0.0 mm 0.00 in0.0 mm
08:08 AM 10.9°F-11.7°C 6.3°F-14.3°C 81% Calm Calm -- 30.79 in1042.7 mb 0.00 in0.0 mm 0.00 in0.0 mm 0.00 in0.0 mm
08:13 AM 10.7°F-11.8°C 6.1°F-14.4°C 81% Calm Calm -- 30.80 in1043.0 mb 0.00 in0.0 mm 0.00 in0.0 mm 0.00 in0.0 mm
08:18 AM 10.6°F-11.9°C 6.0°F-14.4°C 81% Calm Calm -- 30.80 in1043.0 mb 0.00 in0.0 mm 0.00 in0.0 mm 0.00 in0.0 mm
08:23 AM 10.4°F-12.0°C 5.8°F-14.6°C 81% Calm Calm -- 30.80 in1043.0 mb 0.00 in0.0 mm 0.00 in0.0 mm 0.00 in0.0 mm
08:28 AM 10.3°F-12.1°C 5.7°F-14.6°C 81% Calm Calm -- 30.80 in1043.0 mb 0.00 in0.0 mm 0.00 in0.0 mm 0.00 in0.0 mm
08:33 AM 10.2°F-12.1°C 5.6°F-14.7°C 81% Calm Calm -- 30.79 in1042.7 mb 0.00 in0.0 mm 0.00 in0.0 mm 0.00 in0.0 mm
08:38 AM 10.1°F-12.2°C 5.5°F-14.7°C 81% Calm Calm 1.0 mph1.6 kmh 30.79 in1042.7 mb 0.00 in0.0 mm 0.00 in0.0 mm 0.00 in0.0 mm
08:43 AM 10.0°F-12.2°C 5.4°F-14.8°C 81% 1.0 mph SE1.6 kmh SE 2.0 mph3.2 kmh 30.79 in1042.7 mb 0.00 in0.0 mm 0.00 in0.0 mm 0.00 in0.0 mm
08:48 AM 10.0°F-12.2°C 5.4°F-14.8°C 81% 1.0 mph ESE1.6 kmh ESE 2.0 mph3.2 kmh 30.80 in1043.0 mb 0.00 in0.0 mm 0.00 in0.0 mm 0.00 in0.0 mm
08:53 AM 10.1°F-12.2°C 5.5°F-14.7°C 81% Calm Calm 2.0 mph3.2 kmh 30.80 in1043.0 mb 0.00 in0.0 mm 0.00 in0.0 mm 0.00 in0.0 mm
08:58 AM 10.2°F-12.1°C 5.6°F-14.7°C 81% Calm Calm 2.0 mph3.2 kmh 30.80 in1043.0 mb 0.00 in0.0 mm 0.00 in0.0 mm 0.00 in0.0 mm
09:03 AM 10.3°F-12.1°C 5.7°F-14.6°C 81% Calm Calm 1.0 mph1.6 kmh 30.80 in1043.0 mb 0.00 in0.0 mm 0.00 in0.0 mm 0.00 in0.0 mm
09:08 AM 10.4°F-12.0°C 6.1°F-14.4°C 82% Calm Calm -- 30.80 in1043.0 mb 0.00 in0.0 mm 0.00 in0.0 mm 0.00 in0.0 mm
09:13 AM 10.6°F-11.9°C 6.3°F-14.3°C 82% 1.0 mph ESE1.6 kmh ESE 1.0 mph1.6 kmh 30.80 in1043.0 mb 0.00 in0.0 mm 0.00 in0.0 mm 0.00 in0.0 mm
09:18 AM 10.9°F-11.7°C 6.6°F-14.1°C 82% Calm Calm -- 30.80 in1043.0 mb 0.00 in0.0 mm 0.00 in0.0 mm 0.00 in0.0 mm
09:23 AM 11.7°F-11.3°C 7.6°F-13.6°C 83% 1.0 mph ESE1.6 kmh ESE 1.0 mph1.6 kmh 30.79 in1042.7 mb 0.00 in0.0 mm 0.00 in0.0 mm 0.00 in0.0 mm
09:28 AM 12.5°F-10.8°C 8.4°F-13.1°C 83% 1.0 mph ESE1.6 kmh ESE 2.0 mph3.2 kmh 30.79 in1042.7 mb 0.00 in0.0 mm 0.00 in0.0 mm 0.00 in0.0 mm
09:33 AM 13.2°F-10.4°C 9.1°F-12.7°C 83% 2.0 mph ESE3.2 kmh ESE 3.0 mph4.8 kmh 30.79 in1042.7 mb 0.00 in0.0 mm 0.00 in0.0 mm 0.00 in0.0 mm
09:38 AM 14.0°F-10.0°C 9.6°F-12.4°C 82% 2.0 mph ESE3.2 kmh ESE 4.0 mph6.4 kmh 30.79 in1042.7 mb 0.00 in0.0 mm 0.00 in0.0 mm 0.00 in0.0 mm
09:43 AM 15.0°F-9.4°C 10.6°F-11.9°C 82% 2.0 mph ESE3.2 kmh ESE 4.0 mph6.4 kmh 30.78 in1042.3 mb 0.00 in0.0 mm 0.00 in0.0 mm 0.00 in0.0 mm
09:48 AM 16.0°F-8.9°C 10.7°F-11.8°C 79% 2.0 mph ESE3.2 kmh ESE 4.0 mph6.4 kmh 30.79 in1042.7 mb 0.00 in0.0 mm 0.00 in0.0 mm 0.00 in0.0 mm
09:53 AM 16.7°F-8.5°C 10.8°F-11.8°C 77% 2.0 mph ESE3.2 kmh ESE 4.0 mph6.4 kmh 30.78 in1042.3 mb 0.00 in0.0 mm 0.00 in0.0 mm 0.00 in0.0 mm
09:58 AM 17.3°F-8.2°C 10.4°F-12.0°C 74% 2.0 mph ESE3.2 kmh ESE 3.0 mph4.8 kmh 30.78 in1042.3 mb 0.00 in0.0 mm 0.00 in0.0 mm 0.00 in0.0 mm
10:03 AM 17.6°F-8.0°C 10.4°F-12.0°C 73% Calm Calm 5.0 mph8.0 kmh 30.78 in1042.3 mb 0.00 in0.0 mm 0.00 in0.0 mm 0.00 in0.0 mm
10:08 AM 17.8°F-7.9°C 10.0°F-12.2°C 71% Calm Calm -- 30.78 in1042.3 mb 0.00 in0.0 mm 0.00 in0.0 mm 0.00 in0.0 mm
10:13 AM 18.1°F-7.7°C 9.9°F-12.3°C 70% Calm Calm -- 30.78 in1042.3 mb 0.00 in0.0 mm 0.00 in0.0 mm 0.00 in0.0 mm
10:18 AM 18.4°F-7.6°C 9.9°F-12.3°C 69% Calm Calm -- 30.77 in1042.0 mb 0.00 in0.0 mm 0.00 in0.0 mm 0.00 in0.0 mm
10:23 AM 18.6°F-7.4°C 10.1°F-12.2°C 69% Calm Calm -- 30.77 in1042.0 mb 0.00 in0.0 mm 0.00 in0.0 mm 0.00 in0.0 mm
10:28 AM 18.9°F-7.3°C 10.0°F-12.2°C 68% Calm Calm -- 30.77 in1042.0 mb 0.00 in0.0 mm 0.00 in0.0 mm 0.00 in0.0 mm
10:33 AM 19.3°F-7.1°C 10.4°F-12.0°C 68% Calm Calm -- 30.77 in1042.0 mb 0.00 in0.0 mm 0.00 in0.0 mm 0.00 in0.0 mm
10:38 AM 19.6°F-6.9°C 10.7°F-11.8°C 68% Calm Calm -- 30.76 in1041.7 mb 0.00 in0.0 mm 0.00 in0.0 mm 0.00 in0.0 mm
10:43 AM 20.2°F-6.6°C 10.9°F-11.7°C 67% Calm Calm -- 30.76 in1041.7 mb 0.00 in0.0 mm 0.00 in0.0 mm 0.00 in0.0 mm
10:48 AM 20.4°F-6.4°C 11.1°F-11.6°C 67% Calm Calm -- 30.76 in1041.7 mb 0.00 in0.0 mm 0.00 in0.0 mm 0.00 in0.0 mm
10:53 AM 21.2°F-6.0°C 11.2°F-11.6°C 65% Calm Calm -- 30.76 in1041.7 mb 0.00 in0.0 mm 0.00 in0.0 mm 0.00 in0.0 mm
10:58 AM 21.5°F-5.8°C 10.7°F-11.8°C 63% Calm Calm -- 30.75 in1041.3 mb 0.00 in0.0 mm 0.00 in0.0 mm 0.00 in0.0 mm
11:03 AM 22.1°F-5.5°C 11.3°F-11.5°C 63% Calm Calm 2.0 mph3.2 kmh 30.75 in1041.3 mb 0.00 in0.0 mm 0.00 in0.0 mm 0.00 in0.0 mm
11:08 AM 22.5°F-5.3°C 11.3°F-11.5°C 62% Calm Calm 2.0 mph3.2 kmh 30.75 in1041.3 mb 0.00 in0.0 mm 0.00 in0.0 mm 0.00 in0.0 mm
11:13 AM 22.8°F-5.1°C 10.8°F-11.8°C 60% Calm Calm 2.0 mph3.2 kmh 30.74 in1041.0 mb 0.00 in0.0 mm 0.00 in0.0 mm 0.00 in0.0 mm
11:18 AM 23.4°F-4.8°C 11.0°F-11.7°C 59% 1.0 mph ESE1.6 kmh ESE 4.0 mph6.4 kmh 30.73 in1040.6 mb 0.00 in0.0 mm 0.00 in0.0 mm 0.00 in0.0 mm
11:23 AM 23.9°F-4.5°C 11.1°F-11.6°C 58% 2.0 mph ESE3.2 kmh ESE 5.0 mph8.0 kmh 30.73 in1040.6 mb 0.00 in0.0 mm 0.00 in0.0 mm 0.00 in0.0 mm
11:28 AM 24.3°F-4.3°C 11.5°F-11.4°C 58% 1.0 mph ENE1.6 kmh ENE 5.0 mph8.0 kmh 30.73 in1040.6 mb 0.00 in0.0 mm 0.00 in0.0 mm 0.00 in0.0 mm
11:33 AM 25.0°F-3.9°C 11.7°F-11.3°C 57% Calm Calm -- 30.73 in1040.6 mb 0.00 in0.0 mm 0.00 in0.0 mm 0.00 in0.0 mm
11:38 AM 25.5°F-3.6°C 11.3°F-11.5°C 55% 1.0 mph SSE1.6 kmh SSE 7.0 mph11.3 kmh 30.73 in1040.6 mb 0.00 in0.0 mm 0.00 in0.0 mm 0.00 in0.0 mm
11:43 AM 25.9°F-3.4°C 11.3°F-11.5°C 54% 2.0 mph SE3.2 kmh SE 7.0 mph11.3 kmh 30.73 in1040.6 mb 0.00 in0.0 mm 0.00 in0.0 mm 0.00 in0.0 mm
11:48 AM 26.3°F-3.2°C 11.7°F-11.3°C 54% 3.0 mph ESE4.8 kmh ESE 7.0 mph11.3 kmh 30.72 in1040.3 mb 0.00 in0.0 mm 0.00 in0.0 mm 0.00 in0.0 mm
11:53 AM 27.1°F-2.7°C 11.1°F-11.6°C 51% 8.0 mph ESE12.9 kmh ESE 9.0 mph14.5 kmh 30.71 in1040.0 mb 0.00 in0.0 mm 0.00 in0.0 mm 0.00 in0.0 mm
11:58 AM 27.5°F-2.5°C 11.0°F-11.7°C 50% 5.0 mph ESE8.0 kmh ESE 10.0 mph16.1 kmh 30.71 in1040.0 mb 0.00 in0.0 mm 0.00 in0.0 mm 0.00 in0.0 mm
12:03 PM 27.9°F-2.3°C 11.3°F-11.5°C 50% 4.0 mph SE6.4 kmh SE 10.0 mph16.1 kmh 30.71 in1040.0 mb 0.00 in0.0 mm 0.00 in0.0 mm 0.00 in0.0 mm
12:08 PM 28.3°F-2.1°C 10.7°F-11.8°C 48% 4.0 mph SSE6.4 kmh SSE 10.0 mph16.1 kmh 30.71 in1040.0 mb 0.00 in0.0 mm 0.00 in0.0 mm 0.00 in0.0 mm
12:18 PM 29.0°F-1.7°C 10.9°F-11.7°C 47% 5.0 mph SSE8.0 kmh SSE 8.0 mph12.9 kmh 30.70 in1039.6 mb 0.00 in0.0 mm 0.00 in0.0 mm 0.00 in0.0 mm
12:23 PM 29.2°F-1.6°C 11.1°F-11.6°C 47% 8.0 mph E12.9 kmh E 9.0 mph14.5 kmh 30.70 in1039.6 mb 0.00 in0.0 mm 0.00 in0.0 mm 0.00 in0.0 mm
12:38 PM 30.3°F-0.9°C 10.0°F-12.2°C 43% 4.0 mph ESE6.4 kmh ESE 9.0 mph14.5 kmh 30.69 in1039.3 mb 0.00 in0.0 mm 0.00 in0.0 mm 0.00 in0.0 mm
12:43 PM 30.8°F-0.7°C 9.9°F-12.3°C 42% 3.0 mph SSE4.8 kmh SSE 8.0 mph12.9 kmh 30.68 in1038.9 mb 0.00 in0.0 mm 0.00 in0.0 mm 0.00 in0.0 mm
12:53 PM 31.1°F-0.5°C 10.2°F-12.1°C 42% 2.0 mph E3.2 kmh E 7.0 mph11.3 kmh 30.68 in1038.9 mb 0.00 in0.0 mm 0.00 in0.0 mm 0.00 in0.0 mm
12:58 PM 31.6°F-0.2°C 11.2°F-11.6°C 43% 2.0 mph SE3.2 kmh SE 7.0 mph11.3 kmh 30.67 in1038.6 mb 0.00 in0.0 mm 0.00 in0.0 mm 0.00 in0.0 mm
01:13 PM 32.6°F0.3°C 9.8°F-12.3°C 39% 5.0 mph SSE8.0 kmh SSE 9.0 mph14.5 kmh 30.66 in1038.3 mb 0.00 in0.0 mm 0.00 in0.0 mm 0.00 in0.0 mm
01:23 PM 32.7°F0.4°C 9.9°F-12.3°C 39% 3.0 mph SE4.8 kmh SE 7.0 mph11.3 kmh 30.66 in1038.3 mb 0.00 in0.0 mm 0.00 in0.0 mm 0.00 in0.0 mm
02:18 PM 33.5°F0.8°C 8.7°F-12.9°C 36% Calm Calm 2.0 mph3.2 kmh 30.62 in1036.9 mb 0.00 in0.0 mm 0.00 in0.0 mm 0.00 in0.0 mm
02:23 PM 34.0°F1.1°C 10.4°F-12.0°C 38% 2.0 mph SW3.2 kmh SW 4.0 mph6.4 kmh 30.61 in1036.6 mb 0.00 in0.0 mm 0.00 in0.0 mm 0.00 in0.0 mm
02:28 PM 34.5°F1.4°C 10.2°F-12.1°C 37% 1.0 mph S1.6 kmh S 1.0 mph1.6 kmh 30.61 in1036.6 mb 0.00 in0.0 mm 0.00 in0.0 mm 0.00 in0.0 mm
02:33 PM 35.1°F1.7°C 9.5°F-12.5°C 35% Calm Calm 2.0 mph3.2 kmh 30.60 in1036.2 mb 0.00 in0.0 mm 0.00 in0.0 mm 0.00 in0.0 mm
02:38 PM 34.7°F1.5°C 14.0°F-10.0°C 43% 1.0 mph NE1.6 kmh NE 5.0 mph8.0 kmh 30.60 in1036.2 mb 0.00 in0.0 mm 0.00 in0.0 mm 0.00 in0.0 mm
02:43 PM 33.5°F0.8°C 17.4°F-8.1°C 52% 4.0 mph NE6.4 kmh NE 7.0 mph11.3 kmh 30.59 in1035.9 mb 0.00 in0.0 mm 0.00 in0.0 mm 0.00 in0.0 mm
02:48 PM 32.8°F0.4°C 18.1°F-7.7°C 55% 4.0 mph ENE6.4 kmh ENE 7.0 mph11.3 kmh 30.59 in1035.9 mb 0.00 in0.0 mm 0.00 in0.0 mm 0.00 in0.0 mm
02:53 PM 32.3°F0.2°C 18.9°F-7.3°C 58% 3.0 mph NE4.8 kmh NE 8.0 mph12.9 kmh 30.59 in1035.9 mb 0.00 in0.0 mm 0.00 in0.0 mm 0.00 in0.0 mm
02:58 PM 31.6°F-0.2°C 18.7°F-7.4°C 59% 3.0 mph NE4.8 kmh NE 8.0 mph12.9 kmh 30.59 in1035.9 mb 0.00 in0.0 mm 0.00 in0.0 mm 0.00 in0.0 mm
03:03 PM 31.3°F-0.4°C 18.4°F-7.6°C 59% 7.0 mph NE11.3 kmh NE 8.0 mph12.9 kmh 30.58 in1035.6 mb 0.00 in0.0 mm 0.00 in0.0 mm 0.00 in0.0 mm
03:08 PM 31.4°F-0.3°C 18.9°F-7.3°C 60% 3.0 mph NE4.8 kmh NE 8.0 mph12.9 kmh 30.57 in1035.2 mb 0.00 in0.0 mm 0.00 in0.0 mm 0.00 in0.0 mm
03:13 PM 31.3°F-0.4°C 18.8°F-7.3°C 60% 6.0 mph E9.7 kmh E 7.0 mph11.3 kmh 30.57 in1035.2 mb 0.00 in0.0 mm 0.00 in0.0 mm 0.00 in0.0 mm
03:18 PM 31.4°F-0.3°C 18.9°F-7.3°C 60% 8.0 mph NE12.9 kmh NE 8.0 mph12.9 kmh 30.57 in1035.2 mb 0.00 in0.0 mm 0.00 in0.0 mm 0.00 in0.0 mm
03:23 PM 30.8°F-0.7°C 18.8°F-7.3°C 61% 7.0 mph E11.3 kmh E 8.0 mph12.9 kmh 30.56 in1034.9 mb 0.00 in0.0 mm 0.00 in0.0 mm 0.00 in0.0 mm
03:28 PM 30.2°F-1.0°C 19.0°F-7.2°C 63% 5.0 mph NE8.0 kmh NE 8.0 mph12.9 kmh 30.55 in1034.5 mb 0.00 in0.0 mm 0.00 in0.0 mm 0.00 in0.0 mm
03:33 PM 30.4°F-0.9°C 19.1°F-7.2°C 63% 2.0 mph E3.2 kmh E 8.0 mph12.9 kmh 30.55 in1034.5 mb 0.00 in0.0 mm 0.00 in0.0 mm 0.00 in0.0 mm
03:38 PM 30.4°F-0.9°C 19.5°F-6.9°C 64% 3.0 mph ENE4.8 kmh ENE 7.0 mph11.3 kmh 30.55 in1034.5 mb 0.00 in0.0 mm 0.00 in0.0 mm 0.00 in0.0 mm
03:43 PM 30.4°F-0.9°C 19.5°F-6.9°C 64% 6.0 mph NE9.7 kmh NE 7.0 mph11.3 kmh 30.54 in1034.2 mb 0.00 in0.0 mm 0.00 in0.0 mm 0.00 in0.0 mm
03:48 PM 30.4°F-0.9°C 19.5°F-6.9°C 64% 4.0 mph NE6.4 kmh NE 9.0 mph14.5 kmh 30.54 in1034.2 mb 0.00 in0.0 mm 0.00 in0.0 mm 0.00 in0.0 mm
03:53 PM 30.8°F-0.7°C 19.9°F-6.7°C 64% 5.0 mph NE8.0 kmh NE 9.0 mph14.5 kmh 30.54 in1034.2 mb 0.00 in0.0 mm 0.00 in0.0 mm 0.00 in0.0 mm
03:58 PM 30.9°F-0.6°C 19.6°F-6.9°C 63% 3.0 mph ENE4.8 kmh ENE 9.0 mph14.5 kmh 30.53 in1033.9 mb 0.00 in0.0 mm 0.00 in0.0 mm 0.00 in0.0 mm
04:03 PM 30.7°F-0.7°C 19.4°F-7.0°C 63% 2.0 mph NE3.2 kmh NE 9.0 mph14.5 kmh 30.53 in1033.9 mb 0.00 in0.0 mm 0.00 in0.0 mm 0.00 in0.0 mm
04:08 PM 30.6°F-0.8°C 20.1°F-6.6°C 65% 5.0 mph NE8.0 kmh NE 7.0 mph11.3 kmh 30.52 in1033.5 mb 0.00 in0.0 mm 0.00 in0.0 mm 0.00 in0.0 mm
04:13 PM 30.5°F-0.8°C 19.6°F-6.9°C 64% 3.0 mph NE4.8 kmh NE 10.0 mph16.1 kmh 30.52 in1033.5 mb 0.00 in0.0 mm 0.00 in0.0 mm 0.00 in0.0 mm
04:18 PM 30.4°F-0.9°C 19.5°F-6.9°C 64% 6.0 mph NE9.7 kmh NE 10.0 mph16.1 kmh 30.52 in1033.5 mb 0.00 in0.0 mm 0.00 in0.0 mm 0.00 in0.0 mm
04:23 PM 30.1°F-1.1°C 19.6°F-6.9°C 65% 7.0 mph ENE11.3 kmh ENE 10.0 mph16.1 kmh 30.52 in1033.5 mb 0.00 in0.0 mm 0.00 in0.0 mm 0.00 in0.0 mm
04:28 PM 29.9°F-1.2°C 19.4°F-7.0°C 65% 5.0 mph NE8.0 kmh NE 10.0 mph16.1 kmh 30.52 in1033.5 mb 0.00 in0.0 mm 0.00 in0.0 mm 0.00 in0.0 mm
04:33 PM 29.9°F-1.2°C 19.4°F-7.0°C 65% 5.0 mph E8.0 kmh E 8.0 mph12.9 kmh 30.52 in1033.5 mb 0.00 in0.0 mm 0.00 in0.0 mm 0.00 in0.0 mm
04:38 PM 29.9°F-1.2°C 19.4°F-7.0°C 65% Calm Calm -- 30.52 in1033.5 mb 0.00 in0.0 mm 0.00 in0.0 mm 0.00 in0.0 mm
04:43 PM 30.1°F-1.1°C 20.0°F-6.7°C 66% 3.0 mph NE4.8 kmh NE 4.0 mph6.4 kmh 30.52 in1033.5 mb 0.00 in0.0 mm 0.00 in0.0 mm 0.00 in0.0 mm
04:48 PM 30.4°F-0.9°C 20.3°F-6.5°C 66% Calm Calm 4.0 mph6.4 kmh 30.52 in1033.5 mb 0.00 in0.0 mm 0.00 in0.0 mm 0.00 in0.0 mm
04:53 PM 30.9°F-0.6°C 20.7°F-6.3°C 66% 3.0 mph E4.8 kmh E 6.0 mph9.7 kmh 30.52 in1033.5 mb 0.00 in0.0 mm 0.00 in0.0 mm 0.00 in0.0 mm
04:58 PM 31.2°F-0.4°C 20.7°F-6.3°C 65% 2.0 mph NE3.2 kmh NE 6.0 mph9.7 kmh 30.52 in1033.5 mb 0.00 in0.0 mm 0.00 in0.0 mm 0.00 in0.0 mm
05:03 PM 31.4°F-0.3°C 20.5°F-6.4°C 64% 4.0 mph NE6.4 kmh NE 5.0 mph8.0 kmh 30.52 in1033.5 mb 0.00 in0.0 mm 0.00 in0.0 mm 0.00 in0.0 mm
05:08 PM 31.3°F-0.4°C 20.4°F-6.4°C 64% 3.0 mph NNE4.8 kmh NNE 5.0 mph8.0 kmh 30.52 in1033.5 mb 0.00 in0.0 mm 0.00 in0.0 mm 0.00 in0.0 mm
05:13 PM 31.1°F-0.5°C 20.2°F-6.6°C 64% 2.0 mph NNE3.2 kmh NNE 5.0 mph8.0 kmh 30.52 in1033.5 mb 0.00 in0.0 mm 0.00 in0.0 mm 0.00 in0.0 mm
05:18 PM 31.1°F-0.5°C 20.2°F-6.6°C 64% 5.0 mph NNE8.0 kmh NNE 5.0 mph8.0 kmh 30.52 in1033.5 mb 0.00 in0.0 mm 0.00 in0.0 mm 0.00 in0.0 mm
05:23 PM 31.0°F-0.6°C 20.1°F-6.6°C 64% 4.0 mph NE6.4 kmh NE 5.0 mph8.0 kmh 30.51 in1033.2 mb 0.00 in0.0 mm 0.00 in0.0 mm 0.00 in0.0 mm
05:28 PM 30.6°F-0.8°C 20.1°F-6.6°C 65% 1.0 mph ESE1.6 kmh ESE 5.0 mph8.0 kmh 30.51 in1033.2 mb 0.00 in0.0 mm 0.00 in0.0 mm 0.00 in0.0 mm
05:33 PM 30.4°F-0.9°C 19.9°F-6.7°C 65% 3.0 mph ENE4.8 kmh ENE 5.0 mph8.0 kmh 30.51 in1033.2 mb 0.00 in0.0 mm 0.00 in0.0 mm 0.00 in0.0 mm
05:38 PM 30.5°F-0.8°C 20.4°F-6.4°C 66% 2.0 mph NE3.2 kmh NE 5.0 mph8.0 kmh 30.50 in1032.8 mb 0.00 in0.0 mm 0.00 in0.0 mm 0.00 in0.0 mm
05:43 PM 30.4°F-0.9°C 20.3°F-6.5°C 66% 1.0 mph ENE1.6 kmh ENE 5.0 mph8.0 kmh 30.50 in1032.8 mb 0.00 in0.0 mm 0.00 in0.0 mm 0.00 in0.0 mm
05:48 PM 30.5°F-0.8°C 20.4°F-6.4°C 66% 1.0 mph NE1.6 kmh NE 5.0 mph8.0 kmh 30.50 in1032.8 mb 0.00 in0.0 mm 0.00 in0.0 mm 0.00 in0.0 mm
05:53 PM 30.6°F-0.8°C 20.8°F-6.2°C 67% 2.0 mph NE3.2 kmh NE 5.0 mph8.0 kmh 30.50 in1032.8 mb 0.00 in0.0 mm 0.00 in0.0 mm 0.00 in0.0 mm
05:58 PM 30.5°F-0.8°C 20.7°F-6.3°C 67% 2.0 mph ENE3.2 kmh ENE 5.0 mph8.0 kmh 30.49 in1032.5 mb 0.00 in0.0 mm 0.00 in0.0 mm 0.00 in0.0 mm
06:03 PM 30.4°F-0.9°C 20.6°F-6.3°C 67% Calm Calm 5.0 mph8.0 kmh 30.50 in1032.8 mb 0.00 in0.0 mm 0.00 in0.0 mm 0.00 in0.0 mm
06:08 PM 30.5°F-0.8°C 20.7°F-6.3°C 67% 3.0 mph NE4.8 kmh NE 4.0 mph6.4 kmh 30.51 in1033.2 mb 0.00 in0.0 mm 0.00 in0.0 mm 0.00 in0.0 mm
06:13 PM 30.6°F-0.8°C 20.5°F-6.4°C 66% 2.0 mph NE3.2 kmh NE 4.0 mph6.4 kmh 30.51 in1033.2 mb 0.00 in0.0 mm 0.00 in0.0 mm 0.00 in0.0 mm
06:18 PM 30.7°F-0.7°C 20.6°F-6.3°C 66% 3.0 mph NE4.8 kmh NE 4.0 mph6.4 kmh 30.50 in1032.8 mb 0.00 in0.0 mm 0.00 in0.0 mm 0.00 in0.0 mm
06:23 PM 30.7°F-0.7°C 20.6°F-6.3°C 66% 2.0 mph NE3.2 kmh NE 4.0 mph6.4 kmh 30.50 in1032.8 mb 0.00 in0.0 mm 0.00 in0.0 mm 0.00 in0.0 mm
06:28 PM 30.7°F-0.7°C 20.6°F-6.3°C 66% 3.0 mph NE4.8 kmh NE 5.0 mph8.0 kmh 30.50 in1032.8 mb 0.00 in0.0 mm 0.00 in0.0 mm 0.00 in0.0 mm
06:33 PM 30.7°F-0.7°C 20.6°F-6.3°C 66% 4.0 mph NE6.4 kmh NE 6.0 mph9.7 kmh 30.51 in1033.2 mb 0.00 in0.0 mm 0.00 in0.0 mm 0.00 in0.0 mm
06:38 PM 30.7°F-0.7°C 20.2°F-6.6°C 65% Calm Calm 6.0 mph9.7 kmh 30.52 in1033.5 mb 0.00 in0.0 mm 0.00 in0.0 mm 0.00 in0.0 mm
06:43 PM 30.6°F-0.8°C 20.1°F-6.6°C 65% 4.0 mph NE6.4 kmh NE 6.0 mph9.7 kmh 30.51 in1033.2 mb 0.00 in0.0 mm 0.00 in0.0 mm 0.00 in0.0 mm
06:48 PM 30.4°F-0.9°C 19.5°F-6.9°C 64% 1.0 mph E1.6 kmh E 6.0 mph9.7 kmh 30.50 in1032.8 mb 0.00 in0.0 mm 0.00 in0.0 mm 0.00 in0.0 mm
06:53 PM 30.1°F-1.1°C 19.2°F-7.1°C 64% 1.0 mph ENE1.6 kmh ENE 5.0 mph8.0 kmh 30.50 in1032.8 mb 0.00 in0.0 mm 0.00 in0.0 mm 0.00 in0.0 mm
06:58 PM 29.9°F-1.2°C 19.1°F-7.2°C 64% Calm Calm 5.0 mph8.0 kmh 30.50 in1032.8 mb 0.00 in0.0 mm 0.00 in0.0 mm 0.00 in0.0 mm
07:03 PM 29.7°F-1.3°C 18.9°F-7.3°C 64% Calm Calm -- 30.50 in1032.8 mb 0.00 in0.0 mm 0.00 in0.0 mm 0.00 in0.0 mm
07:08 PM 29.5°F-1.4°C 19.4°F-7.0°C 66% 3.0 mph ENE4.8 kmh ENE 4.0 mph6.4 kmh 30.49 in1032.5 mb 0.00 in0.0 mm 0.00 in0.0 mm 0.00 in0.0 mm
07:13 PM 29.1°F-1.6°C 19.4°F-7.0°C 67% 3.0 mph NE4.8 kmh NE 5.0 mph8.0 kmh 30.48 in1032.2 mb 0.00 in0.0 mm 0.00 in0.0 mm 0.00 in0.0 mm
07:18 PM 28.9°F-1.7°C 19.2°F-7.1°C 67% Calm Calm 6.0 mph9.7 kmh 30.48 in1032.2 mb 0.00 in0.0 mm 0.00 in0.0 mm 0.00 in0.0 mm
07:23 PM 28.7°F-1.8°C 19.7°F-6.8°C 69% 2.0 mph ESE3.2 kmh ESE 6.0 mph9.7 kmh 30.47 in1031.8 mb 0.00 in0.0 mm 0.00 in0.0 mm 0.00 in0.0 mm
07:28 PM 28.6°F-1.9°C 19.6°F-6.9°C 69% Calm Calm 6.0 mph9.7 kmh 30.47 in1031.8 mb 0.00 in0.0 mm 0.00 in0.0 mm 0.00 in0.0 mm
07:33 PM 28.6°F-1.9°C 20.0°F-6.7°C 70% Calm Calm 6.0 mph9.7 kmh 30.47 in1031.8 mb 0.00 in0.0 mm 0.00 in0.0 mm 0.00 in0.0 mm
07:38 PM 28.6°F-1.9°C 20.0°F-6.7°C 70% 1.0 mph E1.6 kmh E 3.0 mph4.8 kmh 30.47 in1031.8 mb 0.00 in0.0 mm 0.00 in0.0 mm 0.00 in0.0 mm
07:43 PM 28.6°F-1.9°C 20.3°F-6.5°C 71% 2.0 mph ENE3.2 kmh ENE 3.0 mph4.8 kmh 30.46 in1031.5 mb 0.00 in0.0 mm 0.00 in0.0 mm 0.00 in0.0 mm
07:48 PM 28.6°F-1.9°C 20.3°F-6.5°C 71% Calm Calm 4.0 mph6.4 kmh 30.46 in1031.5 mb 0.00 in0.0 mm 0.00 in0.0 mm 0.00 in0.0 mm
07:53 PM 28.6°F-1.9°C 20.7°F-6.3°C 72% Calm Calm 3.0 mph4.8 kmh 30.46 in1031.5 mb 0.00 in0.0 mm 0.00 in0.0 mm 0.00 in0.0 mm
07:58 PM 28.6°F-1.9°C 20.7°F-6.3°C 72% Calm Calm -- 30.46 in1031.5 mb 0.00 in0.0 mm 0.00 in0.0 mm 0.00 in0.0 mm
08:03 PM 28.7°F-1.8°C 20.8°F-6.2°C 72% Calm Calm -- 30.46 in1031.5 mb 0.00 in0.0 mm 0.00 in0.0 mm 0.00 in0.0 mm
08:08 PM 28.7°F-1.8°C 20.8°F-6.2°C 72% Calm Calm -- 30.46 in1031.5 mb 0.00 in0.0 mm 0.00 in0.0 mm 0.00 in0.0 mm
08:13 PM 28.8°F-1.8°C 20.8°F-6.2°C 72% Calm Calm 3.0 mph4.8 kmh 30.45 in1031.2 mb 0.00 in0.0 mm 0.00 in0.0 mm 0.00 in0.0 mm
08:18 PM 29.0°F-1.7°C 21.0°F-6.1°C 72% Calm Calm -- 30.45 in1031.2 mb 0.00 in0.0 mm 0.00 in0.0 mm 0.00 in0.0 mm
08:23 PM 29.1°F-1.6°C 21.1°F-6.1°C 72% Calm Calm -- 30.44 in1030.8 mb 0.00 in0.0 mm 0.00 in0.0 mm 0.00 in0.0 mm
08:28 PM 29.1°F-1.6°C 21.1°F-6.1°C 72% Calm Calm -- 30.44 in1030.8 mb 0.00 in0.0 mm 0.00 in0.0 mm 0.00 in0.0 mm
08:33 PM 29.2°F-1.6°C 21.2°F-6.0°C 72% Calm Calm -- 30.43 in1030.5 mb 0.00 in0.0 mm 0.00 in0.0 mm 0.00 in0.0 mm
08:38 PM 29.3°F-1.5°C 21.3°F-5.9°C 72% Calm Calm -- 30.43 in1030.5 mb 0.00 in0.0 mm 0.00 in0.0 mm 0.00 in0.0 mm
08:43 PM 29.3°F-1.5°C 21.3°F-5.9°C 72% Calm Calm -- 30.44 in1030.8 mb 0.00 in0.0 mm 0.00 in0.0 mm 0.00 in0.0 mm
08:48 PM 29.4°F-1.4°C 21.4°F-5.9°C 72% Calm Calm -- 30.44 in1030.8 mb 0.00 in0.0 mm 0.00 in0.0 mm 0.00 in0.0 mm
08:53 PM 29.4°F-1.4°C 21.1°F-6.1°C 71% Calm Calm -- 30.44 in1030.8 mb 0.00 in0.0 mm 0.00 in0.0 mm 0.00 in0.0 mm
08:58 PM 29.5°F-1.4°C 21.2°F-6.0°C 71% Calm Calm -- 30.43 in1030.5 mb 0.00 in0.0 mm 0.00 in0.0 mm 0.00 in0.0 mm
09:03 PM 29.5°F-1.4°C 21.5°F-5.8°C 72% Calm Calm -- 30.42 in1030.1 mb 0.00 in0.0 mm 0.00 in0.0 mm 0.00 in0.0 mm
09:08 PM 29.6°F-1.3°C 21.6°F-5.8°C 72% Calm Calm -- 30.42 in1030.1 mb 0.00 in0.0 mm 0.00 in0.0 mm 0.00 in0.0 mm
09:13 PM 29.7°F-1.3°C 21.7°F-5.7°C 72% Calm Calm -- 30.42 in1030.1 mb 0.00 in0.0 mm 0.00 in0.0 mm 0.00 in0.0 mm
09:18 PM 29.8°F-1.2°C 21.8°F-5.7°C 72% Calm Calm -- 30.42 in1030.1 mb 0.00 in0.0 mm 0.00 in0.0 mm 0.00 in0.0 mm
09:23 PM 29.8°F-1.2°C 21.8°F-5.7°C 72% Calm Calm -- 30.42 in1030.1 mb 0.00 in0.0 mm 0.00 in0.0 mm 0.00 in0.0 mm
09:28 PM 29.9°F-1.2°C 21.9°F-5.6°C 72% Calm Calm -- 30.41 in1029.8 mb 0.00 in0.0 mm 0.00 in0.0 mm 0.00 in0.0 mm
09:33 PM 30.0°F-1.1°C 22.0°F-5.6°C 72% Calm Calm -- 30.41 in1029.8 mb 0.00 in0.0 mm 0.00 in0.0 mm 0.00 in0.0 mm
09:38 PM 30.1°F-1.1°C 22.1°F-5.5°C 72% Calm Calm -- 30.41 in1029.8 mb 0.00 in0.0 mm 0.00 in0.0 mm 0.00 in0.0 mm
09:43 PM 30.2°F-1.0°C 22.2°F-5.4°C 72% Calm Calm -- 30.41 in1029.8 mb 0.00 in0.0 mm 0.00 in0.0 mm 0.00 in0.0 mm
09:48 PM 30.3°F-0.9°C 22.3°F-5.4°C 72% Calm Calm -- 30.41 in1029.8 mb 0.00 in0.0 mm 0.00 in0.0 mm 0.00 in0.0 mm
09:53 PM 30.4°F-0.9°C 22.4°F-5.3°C 72% Calm Calm -- 30.40 in1029.5 mb 0.00 in0.0 mm 0.00 in0.0 mm 0.00 in0.0 mm
09:58 PM 30.5°F-0.8°C 22.5°F-5.3°C 72% Calm Calm -- 30.40 in1029.5 mb 0.00 in0.0 mm 0.00 in0.0 mm 0.00 in0.0 mm
10:03 PM 30.5°F-0.8°C 22.5°F-5.3°C 72% Calm Calm -- 30.38 in1028.8 mb 0.00 in0.0 mm 0.00 in0.0 mm 0.00 in0.0 mm
10:08 PM 30.7°F-0.7°C 23.0°F-5.0°C 73% Calm Calm -- 30.38 in1028.8 mb 0.00 in0.0 mm 0.00 in0.0 mm 0.00 in0.0 mm
10:13 PM 30.8°F-0.7°C 23.1°F-4.9°C 73% Calm Calm -- 30.38 in1028.8 mb 0.00 in0.0 mm 0.00 in0.0 mm 0.00 in0.0 mm
10:18 PM 30.9°F-0.6°C 23.2°F-4.9°C 73% Calm Calm -- 30.38 in1028.8 mb 0.00 in0.0 mm 0.00 in0.0 mm 0.00 in0.0 mm
10:23 PM 30.9°F-0.6°C 23.2°F-4.9°C 73% Calm Calm -- 30.38 in1028.8 mb 0.00 in0.0 mm 0.00 in0.0 mm 0.00 in0.0 mm
10:28 PM 31.0°F-0.6°C 23.3°F-4.8°C 73% Calm Calm -- 30.38 in1028.8 mb 0.00 in0.0 mm 0.00 in0.0 mm 0.00 in0.0 mm
10:33 PM 31.1°F-0.5°C 23.4°F-4.8°C 73% Calm Calm -- 30.37 in1028.4 mb 0.00 in0.0 mm 0.00 in0.0 mm 0.00 in0.0 mm
10:38 PM 31.2°F-0.4°C 23.5°F-4.7°C 73% Calm Calm -- 30.36 in1028.1 mb 0.00 in0.0 mm 0.00 in0.0 mm 0.00 in0.0 mm
10:43 PM 31.3°F-0.4°C 23.6°F-4.7°C 73% Calm Calm -- 30.35 in1027.8 mb 0.00 in0.0 mm 0.00 in0.0 mm 0.00 in0.0 mm
10:48 PM 31.6°F-0.2°C 23.9°F-4.5°C 73% Calm Calm -- 30.35 in1027.8 mb 0.00 in0.0 mm 0.00 in0.0 mm 0.00 in0.0 mm
10:53 PM 31.8°F-0.1°C 24.4°F-4.2°C 74% Calm Calm -- 30.34 in1027.4 mb 0.00 in0.0 mm 0.00 in0.0 mm 0.00 in0.0 mm
10:58 PM 31.9°F-0.1°C 24.2°F-4.3°C 73% Calm Calm -- 30.35 in1027.8 mb 0.00 in0.0 mm 0.00 in0.0 mm 0.00 in0.0 mm
11:03 PM 32.2°F0.1°C 24.8°F-4.0°C 74% 1.0 mph SW1.6 kmh SW 6.0 mph9.7 kmh 30.36 in1028.1 mb 0.00 in0.0 mm 0.00 in0.0 mm 0.00 in0.0 mm
11:08 PM 32.7°F0.4°C 25.6°F-3.6°C 75% Calm Calm 6.0 mph9.7 kmh 30.37 in1028.4 mb 0.00 in0.0 mm 0.00 in0.0 mm 0.00 in0.0 mm
11:13 PM 33.3°F0.7°C 26.5°F-3.1°C 76% Calm Calm 6.0 mph9.7 kmh 30.37 in1028.4 mb 0.00 in0.0 mm 0.00 in0.0 mm 0.00 in0.0 mm
11:18 PM 34.1°F1.2°C 27.3°F-2.6°C 76% Calm Calm 9.0 mph14.5 kmh 30.37 in1028.4 mb 0.00 in0.0 mm 0.00 in0.0 mm 0.00 in0.0 mm
11:23 PM 34.7°F1.5°C 27.5°F-2.5°C 75% 10.0 mph SSW16.1 kmh SSW 10.0 mph16.1 kmh 30.37 in1028.4 mb 0.00 in0.0 mm 0.00 in0.0 mm 0.00 in0.0 mm
11:28 PM 35.6°F2.0°C 27.7°F-2.4°C 73% 1.0 mph SSW1.6 kmh SSW 10.0 mph16.1 kmh 30.38 in1028.8 mb 0.00 in0.0 mm 0.00 in0.0 mm 0.00 in0.0 mm
11:33 PM 35.9°F2.2°C 27.7°F-2.4°C 72% 2.0 mph SW3.2 kmh SW 10.0 mph16.1 kmh 30.38 in1028.8 mb 0.00 in0.0 mm 0.00 in0.0 mm 0.00 in0.0 mm
11:38 PM 36.2°F2.3°C 27.9°F-2.3°C 72% 4.0 mph SW6.4 kmh SW 10.0 mph16.1 kmh 30.38 in1028.8 mb 0.00 in0.0 mm 0.00 in0.0 mm 0.00 in0.0 mm
11:43 PM 36.4°F2.4°C 27.8°F-2.3°C 71% Calm Calm 10.0 mph16.1 kmh 30.37 in1028.4 mb 0.00 in0.0 mm 0.00 in0.0 mm 0.00 in0.0 mm
11:48 PM 36.5°F2.5°C 27.9°F-2.3°C 71% 3.0 mph S4.8 kmh S 9.0 mph14.5 kmh 30.36 in1028.1 mb 0.00 in0.0 mm 0.00 in0.0 mm 0.00 in0.0 mm
11:53 PM 36.7°F2.6°C 28.1°F-2.2°C 71% Calm Calm 11.0 mph17.7 kmh 30.36 in1028.1 mb 0.00 in0.0 mm 0.00 in0.0 mm 0.00 in0.0 mm
11:58 PM 36.6°F2.6°C 28.0°F-2.2°C 71% Calm Calm 11.0 mph17.7 kmh 30.36 in1028.1 mb 0.00 in0.0 mm 0.00 in0.0 mm 0.00 in0.0 mm